East Ellijay, Georgia
Current Conditions -  °F | °C
As of 11:35 AM on Saturday 22 Nov 2014 (Local Time) from KDNN Reporting Station
Clear Clear  
Wind Chill: 55°   Ceiling: Unl
Heat Index: 55°   Visibility: 10mi
Dew Point: 28°   Wind: 14mph
Humidity: 36%   Direction: 140°SE
Pressure: 30.4"   Gusts: 20mph
Location:  34.68°N, 84.47°W
Report Text: KDNN 221635Z AUTO 14012G17KT 10SM CLR 13/M02 A3040 RMK AO2
Loading
Personal Weather Stations






























Interactive Weather Map New forecast layout! Learn more

10-Day Weather Forecast

Advertisements
Track Severe Weather on mobile